createdAt,value
2017-12-05T00:00:41.811Z,43.67
2017-12-05T00:03:10.013Z,44.70
2017-12-05T00:05:40.116Z,41.77
2017-12-05T00:08:10.981Z,46.03
2017-12-05T00:10:40.581Z,47.90
2017-12-05T00:13:09.336Z,45.67
2017-12-05T00:15:42.765Z,46.17
2017-12-05T00:18:15.525Z,44.80
2017-12-05T00:20:46.115Z,42.13
2017-12-05T00:23:15.988Z,43.50
2017-12-05T00:25:45.935Z,45.07
2017-12-05T00:28:16.102Z,46.90
2017-12-05T00:30:45.196Z,48.80
2017-12-05T00:33:19.643Z,48.37
2017-12-05T00:35:46.372Z,48.87
2017-12-05T00:38:16.155Z,49.90
2017-12-05T00:40:45.672Z,48.07
2017-12-05T00:43:15.656Z,52.90
2017-12-05T00:45:46.225Z,51.53
2017-12-05T00:48:15.640Z,50.97
2017-12-05T00:50:44.608Z,49.53
2017-12-05T00:53:16.021Z,47.37
2017-12-05T00:55:46.042Z,45.47
2017-12-05T00:58:15.633Z,45.17
2017-12-05T01:00:46.031Z,44.60
2017-12-05T01:03:16.140Z,43.87
2017-12-05T01:05:45.674Z,39.53
2017-12-05T01:08:16.066Z,42.03
2017-12-05T01:10:45.173Z,38.90
2017-12-05T01:13:15.068Z,39.03
2017-12-05T01:15:46.052Z,37.03
2017-12-05T01:18:16.644Z,35.90
2017-12-05T01:20:45.810Z,35.53
2017-12-05T01:23:15.539Z,35.90
2017-12-05T01:25:44.621Z,34.87
2017-12-05T01:28:17.664Z,33.57
2017-12-05T01:30:44.788Z,32.87
2017-12-05T01:33:15.720Z,33.20
2017-12-05T01:35:44.624Z,33.87
2017-12-05T01:38:14.637Z,35.03
2017-12-05T01:40:48.097Z,31.40
2017-12-05T01:43:16.256Z,32.33
2017-12-05T01:45:46.152Z,31.47
2017-12-05T01:48:16.447Z,31.13
2017-12-05T01:50:45.132Z,31.90
2017-12-05T01:53:15.661Z,29.87
2017-12-05T01:55:45.972Z,30.83
2017-12-05T01:58:14.849Z,30.30
2017-12-05T02:00:42.900Z,30.30
2017-12-05T02:03:16.085Z,30.27
2017-12-05T02:05:44.224Z,27.67
2017-12-05T02:08:14.768Z,25.50
2017-12-05T02:10:45.140Z,25.70
2017-12-05T02:13:14.707Z,25.27
2017-12-05T02:15:45.780Z,24.53
2017-12-05T02:18:14.780Z,22.80
2017-12-05T02:20:45.724Z,24.20
2017-12-05T02:23:15.726Z,23.50
2017-12-05T02:25:44.450Z,22.20
2017-12-05T02:28:14.781Z,23.80
2017-12-05T02:30:43.872Z,21.97
2017-12-05T02:33:16.137Z,23.00
2017-12-05T02:35:46.140Z,22.30
2017-12-05T02:38:16.164Z,23.77
2017-12-05T02:40:48.676Z,25.50
2017-12-05T02:43:15.479Z,22.50
2017-12-05T02:45:44.929Z,23.90
2017-12-05T02:48:14.789Z,22.23
2017-12-05T02:50:44.745Z,21.60
2017-12-05T02:53:14.792Z,23.13
2017-12-05T02:55:44.742Z,22.73
2017-12-05T02:58:15.408Z,22.10
2017-12-05T03:00:46.138Z,23.43
2017-12-05T03:03:14.781Z,20.70
2017-12-05T03:05:44.293Z,22.37
2017-12-05T03:08:13.697Z,20.40
2017-12-05T03:10:44.725Z,20.10
2017-12-05T03:13:16.141Z,21.93
2017-12-05T03:15:46.195Z,19.80
2017-12-05T03:18:16.180Z,19.60
2017-12-05T03:20:46.292Z,19.70
2017-12-05T03:23:16.023Z,19.87
2017-12-05T03:25:45.826Z,17.10
2017-12-05T03:28:15.787Z,19.27
2017-12-05T03:30:44.794Z,18.80
2017-12-05T03:33:16.220Z,18.00
2017-12-05T03:35:46.376Z,18.27
2017-12-05T03:38:15.268Z,18.27
2017-12-05T03:40:47.273Z,17.10
2017-12-05T03:43:15.892Z,17.90
2017-12-05T03:45:45.929Z,19.90
2017-12-05T03:48:25.840Z,17.67
2017-12-05T03:50:52.482Z,18.97
2017-12-05T03:53:19.132Z,19.40
2017-12-05T03:55:46.585Z,20.10
2017-12-05T03:58:14.975Z,18.63
2017-12-05T04:00:45.504Z,20.07
2017-12-05T04:03:16.336Z,18.63
2017-12-05T04:05:46.880Z,19.60
2017-12-05T04:08:15.089Z,19.13
2017-12-05T04:10:46.243Z,20.30
2017-12-05T04:13:14.936Z,16.60
2017-12-05T04:15:44.953Z,17.43
2017-12-05T04:18:25.241Z,17.60
2017-12-05T04:20:51.881Z,18.27
2017-12-05T04:23:18.521Z,21.17
2017-12-05T04:25:46.888Z,17.77
2017-12-05T04:28:15.356Z,19.10
2017-12-05T04:30:48.729Z,19.27
2017-12-05T04:33:16.737Z,19.50
2017-12-05T04:35:45.053Z,20.63
2017-12-05T04:38:16.532Z,22.17
2017-12-05T04:40:46.622Z,19.40
2017-12-05T04:43:15.996Z,22.00
2017-12-05T04:45:45.548Z,20.63
2017-12-05T04:48:16.000Z,20.20
2017-12-05T04:50:46.433Z,19.00
2017-12-05T04:53:16.421Z,21.67
2017-12-05T04:55:46.581Z,20.13
2017-12-05T04:58:15.393Z,19.30
2017-12-05T05:00:45.504Z,19.73
2017-12-05T05:03:14.752Z,20.37
2017-12-05T05:05:46.027Z,21.17
2017-12-05T05:08:15.065Z,23.57
2017-12-05T05:10:46.572Z,23.23
2017-12-05T05:13:15.096Z,24.60
2017-12-05T05:15:45.320Z,25.20
2017-12-05T05:18:15.089Z,24.17
2017-12-05T05:20:46.676Z,23.37
2017-12-05T05:23:14.843Z,26.07
2017-12-05T05:25:46.049Z,28.10
2017-12-05T05:28:16.472Z,31.37
2017-12-05T05:30:50.016Z,27.77
2017-12-05T05:33:16.672Z,28.93
2017-12-05T05:35:44.753Z,30.13
2017-12-05T05:38:15.049Z,30.23
2017-12-05T05:40:44.685Z,29.53
2017-12-05T05:43:16.492Z,30.80
2017-12-05T05:45:46.161Z,31.00
2017-12-05T05:48:16.068Z,34.20
2017-12-05T05:50:42.934Z,31.07
2017-12-05T05:53:14.085Z,31.70
2017-12-05T05:55:45.704Z,32.27
2017-12-05T05:58:16.480Z,31.77
2017-12-05T06:00:46.504Z,32.70
2017-12-05T06:03:15.116Z,33.40
2017-12-05T06:05:50.794Z,34.27
2017-12-05T06:08:17.576Z,33.20
2017-12-05T06:10:46.052Z,36.43
2017-12-05T06:13:16.099Z,36.03
2017-12-05T06:15:46.558Z,34.67
2017-12-05T06:18:16.516Z,38.10
2017-12-05T06:20:45.135Z,38.73
2017-12-05T06:23:13.481Z,38.13
2017-12-05T06:25:45.053Z,39.20
2017-12-05T06:28:14.306Z,41.37
2017-12-05T06:30:44.212Z,40.60
2017-12-05T06:33:16.537Z,41.90
2017-12-05T06:35:46.641Z,44.90
2017-12-05T06:38:16.545Z,43.30
2017-12-05T06:40:43.693Z,40.13
2017-12-05T06:43:13.241Z,41.33
2017-12-05T06:45:40.349Z,38.97
2017-12-05T06:48:16.565Z,39.60
2017-12-05T06:50:46.677Z,37.20
2017-12-05T06:53:16.216Z,39.30
2017-12-05T06:55:43.316Z,37.80
2017-12-05T06:58:14.608Z,35.40
2017-12-05T07:00:47.556Z,35.27
2017-12-05T07:03:15.400Z,34.77
2017-12-05T07:05:45.981Z,34.10
2017-12-05T07:08:22.641Z,37.37
2017-12-05T07:10:50.124Z,37.03
2017-12-05T07:13:16.880Z,35.53
2017-12-05T07:15:46.593Z,35.37
2017-12-05T07:18:15.213Z,34.93
2017-12-05T07:20:46.592Z,33.27
2017-12-05T07:23:15.400Z,34.67
2017-12-05T07:25:45.600Z,36.87
2017-12-05T07:28:14.402Z,34.53
2017-12-05T07:30:44.371Z,33.77
2017-12-05T07:33:12.549Z,34.20
2017-12-05T07:35:44.517Z,33.60
2017-12-05T07:38:14.241Z,33.83
2017-12-05T07:40:44.188Z,33.67
2017-12-05T07:43:11.359Z,35.00
2017-12-05T07:45:45.193Z,32.67
2017-12-05T07:48:15.965Z,35.20
2017-12-05T07:50:45.582Z,33.30
2017-12-05T07:53:14.190Z,35.30
2017-12-05T07:55:44.594Z,33.80
2017-12-05T07:58:14.648Z,34.23
2017-12-05T08:00:45.721Z,34.00
2017-12-05T08:03:16.047Z,37.60
2017-12-05T08:05:45.253Z,36.40
2017-12-05T08:08:11.970Z,36.97
2017-12-05T08:10:43.066Z,33.67
2017-12-05T08:13:22.153Z,36.40
2017-12-05T08:15:48.793Z,35.37
2017-12-05T08:18:17.020Z,34.77
2017-12-05T08:20:44.724Z,36.47
2017-12-05T08:23:16.625Z,33.63
2017-12-05T08:25:46.096Z,37.10
2017-12-05T08:28:15.741Z,36.67
2017-12-05T08:30:45.739Z,37.77
2017-12-05T08:35:47.213Z,37.47
2017-12-05T08:38:16.102Z,37.10
2017-12-05T08:40:45.665Z,36.00
2017-12-05T08:43:14.848Z,35.20
2017-12-05T08:45:44.730Z,36.63
2017-12-05T08:48:15.858Z,35.90
2017-12-05T08:50:44.937Z,35.40
2017-12-05T08:53:14.766Z,36.40
2017-12-05T08:55:44.682Z,35.70
2017-12-05T08:58:14.588Z,34.40
2017-12-05T09:00:45.201Z,34.53
2017-12-05T09:03:15.403Z,34.00
2017-12-05T09:05:45.829Z,36.20
2017-12-05T09:08:15.836Z,32.90
2017-12-05T09:10:47.173Z,33.07
2017-12-05T09:13:15.156Z,35.47
2017-12-05T09:15:49.753Z,34.57
2017-12-05T09:18:40.319Z,35.07
2017-12-05T09:21:15.480Z,35.67
2017-12-05T09:23:45.828Z,33.60
2017-12-05T09:26:14.937Z,33.37
2017-12-05T09:28:45.822Z,34.17
2017-12-05T09:31:14.817Z,33.10
2017-12-05T09:33:45.601Z,29.90
2017-12-05T09:36:14.407Z,35.90
2017-12-05T09:38:45.873Z,32.33
2017-12-05T09:41:14.879Z,31.70
2017-12-05T09:43:45.345Z,33.67
2017-12-05T09:46:14.872Z,33.40
2017-12-05T09:48:44.893Z,32.40
2017-12-05T09:51:14.296Z,32.73
2017-12-05T09:53:44.880Z,34.30
2017-12-05T09:56:15.206Z,31.93
2017-12-05T09:58:44.505Z,31.50
2017-12-05T10:01:15.920Z,32.60
2017-12-05T10:03:48.556Z,32.20
2017-12-05T10:06:15.741Z,31.73
2017-12-05T10:08:44.252Z,33.17
2017-12-05T10:11:17.806Z,32.20
2017-12-05T10:13:46.591Z,31.43
2017-12-05T10:16:16.342Z,32.07
2017-12-05T10:18:46.369Z,32.83
2017-12-05T10:21:15.486Z,33.60
2017-12-05T10:23:45.625Z,31.47
2017-12-05T10:26:14.960Z,32.00
2017-12-05T10:28:45.951Z,32.37
2017-12-05T10:31:16.040Z,31.50
2017-12-05T10:33:45.973Z,32.47
2017-12-05T10:36:15.191Z,31.20
2017-12-05T10:38:45.979Z,32.03
2017-12-05T10:41:15.406Z,30.77
2017-12-05T10:43:44.233Z,32.37
2017-12-05T10:46:14.320Z,30.67
2017-12-05T10:48:44.657Z,31.37
2017-12-05T10:51:16.120Z,29.87
2017-12-05T10:53:45.405Z,32.67
2017-12-05T10:56:15.577Z,32.40
2017-12-05T10:58:46.024Z,31.60
2017-12-05T11:01:14.134Z,30.03
2017-12-05T11:03:43.965Z,28.13
2017-12-05T11:06:13.497Z,29.10
2017-12-05T11:08:42.789Z,31.30
2017-12-05T11:11:11.777Z,30.57
2017-12-05T11:13:41.930Z,30.03
2017-12-05T11:16:13.347Z,30.97
2017-12-05T11:18:44.193Z,29.33
2017-12-05T11:21:14.482Z,29.33
2017-12-05T11:23:45.996Z,29.93
2017-12-05T11:26:16.145Z,29.60
2017-12-05T11:28:46.009Z,30.40
2017-12-05T11:31:14.713Z,31.30
2017-12-05T11:33:43.456Z,28.27
2017-12-05T11:36:14.349Z,30.53
2017-12-05T11:38:44.348Z,30.60
2017-12-05T11:41:15.010Z,29.20
2017-12-05T11:43:44.681Z,29.20
2017-12-05T11:46:13.584Z,28.80
2017-12-05T11:48:40.418Z,29.87
2017-12-05T11:51:11.032Z,29.67
2017-12-05T11:53:43.160Z,28.60
2017-12-05T11:56:13.221Z,30.07
2017-12-05T11:58:45.020Z,32.63
2017-12-05T12:01:14.773Z,28.27
2017-12-05T12:03:44.772Z,30.67
2017-12-05T12:06:12.770Z,31.93
2017-12-05T12:08:43.573Z,29.23
2017-12-05T12:11:15.360Z,29.53
2017-12-05T12:13:45.484Z,31.30
2017-12-05T12:16:15.149Z,28.80
2017-12-05T12:18:44.080Z,29.17
2017-12-05T12:21:15.704Z,29.70
2017-12-05T12:23:46.613Z,29.87
2017-12-05T12:26:19.852Z,29.17
2017-12-05T12:28:46.840Z,28.10
2017-12-05T12:31:16.716Z,30.27
2017-12-05T12:33:45.144Z,28.07
2017-12-05T12:36:19.764Z,28.40
2017-12-05T12:38:46.869Z,29.77
2017-12-05T12:41:15.553Z,31.40
2017-12-05T12:43:46.506Z,28.30
2017-12-05T12:46:16.181Z,29.50
2017-12-05T12:48:46.123Z,30.00
2017-12-05T12:51:15.757Z,30.07
2017-12-05T12:53:49.174Z,28.37
2017-12-05T12:56:17.014Z,29.20
2017-12-05T12:58:47.680Z,27.60
2017-12-05T13:01:16.925Z,29.07
2017-12-05T13:03:46.601Z,30.33
2017-12-05T13:06:16.329Z,28.67
2017-12-05T13:08:48.202Z,27.60
2017-12-05T13:11:16.750Z,29.17
2017-12-05T13:13:45.961Z,27.60
2017-12-05T13:16:16.609Z,27.70
2017-12-05T13:18:45.200Z,27.77
2017-12-05T13:21:17.164Z,26.57
2017-12-05T13:23:48.224Z,26.97
2017-12-05T13:26:16.033Z,27.40
2017-12-05T13:28:45.224Z,26.67
2017-12-05T13:31:28.206Z,28.47
2017-12-05T13:33:54.918Z,25.97
2017-12-05T13:36:22.968Z,26.50
2017-12-05T13:38:49.613Z,26.10
2017-12-05T13:41:17.121Z,27.30
2017-12-05T13:43:46.622Z,28.33
2017-12-05T13:46:16.690Z,25.17
2017-12-05T13:48:46.725Z,26.33
2017-12-05T13:51:16.864Z,25.47
2017-12-05T13:53:46.600Z,26.37
2017-12-05T13:56:16.701Z,27.10
2017-12-05T13:58:50.676Z,27.73
2017-12-05T14:01:20.428Z,27.60
2017-12-05T14:03:52.036Z,25.90
2017-12-05T14:06:18.765Z,27.40
2017-12-05T14:08:45.929Z,26.40
2017-12-05T14:11:15.890Z,28.00
2017-12-05T14:13:45.360Z,26.53
2017-12-05T14:16:15.696Z,25.37
2017-12-05T14:18:44.874Z,30.23
2017-12-05T14:21:14.066Z,27.50
2017-12-05T14:23:46.494Z,28.40
2017-12-05T14:26:15.730Z,25.30
2017-12-05T14:28:45.798Z,26.80
2017-12-05T14:31:15.409Z,25.90
2017-12-05T14:33:45.358Z,26.30
2017-12-05T14:36:15.593Z,24.97
2017-12-05T14:38:44.968Z,25.30
2017-12-05T14:41:14.437Z,25.40
2017-12-05T14:43:53.405Z,24.17
2017-12-05T14:46:20.049Z,25.53
2017-12-05T14:48:46.693Z,26.57
2017-12-05T14:51:16.202Z,24.60
2017-12-05T14:53:46.496Z,25.87
2017-12-05T14:56:16.066Z,26.70
2017-12-05T14:58:42.709Z,24.37
2017-12-05T15:01:09.764Z,24.50
2017-12-05T15:03:41.424Z,25.03
2017-12-05T15:06:11.345Z,25.10
2017-12-05T15:08:40.889Z,24.23
2017-12-05T15:11:11.796Z,22.63
2017-12-05T15:13:41.217Z,23.50
2017-12-05T15:16:11.272Z,24.60
2017-12-05T15:18:40.895Z,23.90
2017-12-05T15:21:11.025Z,24.37
2017-12-05T15:23:41.001Z,26.30
2017-12-05T15:26:09.486Z,25.77
2017-12-05T15:28:39.107Z,24.20
2017-12-05T15:31:11.270Z,25.10
2017-12-05T15:33:40.954Z,24.57
2017-12-05T15:36:10.637Z,23.40
2017-12-05T15:38:40.549Z,23.67
2017-12-05T15:41:14.873Z,23.83
2017-12-05T15:43:42.340Z,22.93
2017-12-05T15:46:10.928Z,23.10
2017-12-05T15:48:53.142Z,26.03
2017-12-05T15:51:19.817Z,24.07
2017-12-05T15:53:46.485Z,23.73
2017-12-05T15:56:13.133Z,23.37
2017-12-05T15:58:39.813Z,23.07
2017-12-05T16:01:06.456Z,23.00
2017-12-05T16:03:33.105Z,22.60
2017-12-05T16:06:02.109Z,23.83
2017-12-05T16:08:34.923Z,23.00
2017-12-05T16:11:01.897Z,22.17
2017-12-05T16:13:31.290Z,21.13
2017-12-05T16:16:01.721Z,22.33
2017-12-05T16:18:30.098Z,23.93
2017-12-05T16:21:01.308Z,23.10
2017-12-05T16:23:32.688Z,20.53
2017-12-05T16:26:00.601Z,22.50
2017-12-05T16:28:31.710Z,21.47
2017-12-05T16:31:11.402Z,20.33
2017-12-05T16:33:38.172Z,20.97
2017-12-05T16:36:04.840Z,21.60
2017-12-05T16:38:32.125Z,22.10
2017-12-05T16:41:01.920Z,21.97
2017-12-05T16:43:36.388Z,19.33
2017-12-05T16:46:08.325Z,21.07
2017-12-05T16:48:34.985Z,21.47
2017-12-05T16:51:01.650Z,21.00
2017-12-05T16:53:31.869Z,21.50
2017-12-05T16:56:05.024Z,20.50
2017-12-05T16:58:37.508Z,23.00
2017-12-05T17:01:04.157Z,19.60
2017-12-05T17:03:32.209Z,22.17
2017-12-05T17:06:02.205Z,20.03
2017-12-05T17:08:40.513Z,22.50
2017-12-05T17:11:08.102Z,21.50
2017-12-05T17:13:35.612Z,20.30
2017-12-05T17:16:02.332Z,20.83
2017-12-05T17:18:31.984Z,20.00
2017-12-05T17:21:11.124Z,20.83
2017-12-05T17:23:38.165Z,20.07
2017-12-05T17:26:04.821Z,20.97
2017-12-05T17:28:47.638Z,20.67
2017-12-05T17:31:17.358Z,20.73
2017-12-05T17:36:38.662Z,22.77
2017-12-05T17:39:05.303Z,21.77
2017-12-05T17:41:32.517Z,20.80
2017-12-05T17:44:02.136Z,20.87
2017-12-05T17:46:37.905Z,21.47
2017-12-05T17:49:04.554Z,21.30
2017-12-05T17:51:32.146Z,20.73
2017-12-05T17:54:02.124Z,20.47
2017-12-05T17:56:41.382Z,20.60
2017-12-05T17:59:08.021Z,21.87
2017-12-05T18:01:34.665Z,21.37
2017-12-05T18:04:03.856Z,20.10
2017-12-05T18:06:32.521Z,21.87
2017-12-05T18:09:02.192Z,21.03
2017-12-05T18:11:32.313Z,20.03
2017-12-05T18:14:02.340Z,21.30
2017-12-05T18:16:34.748Z,21.27
2017-12-05T18:19:03.288Z,22.13
2017-12-05T18:21:32.198Z,19.17
2017-12-05T18:24:01.940Z,18.10
2017-12-05T18:26:33.193Z,19.90
2017-12-05T18:29:01.565Z,21.00
2017-12-05T18:31:31.179Z,19.27
2017-12-05T18:34:15.465Z,19.60
2017-12-05T18:36:43.358Z,19.20
2017-12-05T18:39:12.040Z,17.87
2017-12-05T18:41:38.706Z,20.30
2017-12-05T18:44:05.353Z,18.80
2017-12-05T18:46:32.601Z,17.87
2017-12-05T18:49:02.252Z,18.80
2017-12-05T18:51:31.804Z,19.37
2017-12-05T18:54:02.225Z,18.27
2017-12-05T18:56:31.929Z,18.43
2017-12-05T18:59:02.440Z,19.30
2017-12-05T19:01:32.448Z,17.77
2017-12-05T19:04:02.465Z,18.40
2017-12-05T19:06:32.609Z,18.13
2017-12-05T19:09:03.066Z,19.27
2017-12-05T19:11:32.662Z,19.47
2017-12-05T19:14:09.782Z,20.30
2017-12-05T19:16:36.456Z,19.83
2017-12-05T19:19:03.097Z,18.43
2017-12-05T19:21:31.536Z,18.13
2017-12-05T19:24:02.545Z,18.70
2017-12-05T19:26:32.524Z,20.17
2017-12-05T19:29:03.549Z,18.43
2017-12-05T19:31:32.173Z,20.60
2017-12-05T19:34:02.590Z,18.70
2017-12-05T19:36:32.662Z,20.63
2017-12-05T19:39:13.536Z,19.50
2017-12-05T19:41:51.754Z,19.37
2017-12-05T19:44:22.636Z,18.57
2017-12-05T19:46:52.769Z,18.00
2017-12-05T19:49:25.806Z,18.13
2017-12-05T19:51:52.465Z,17.77
2017-12-05T19:54:21.893Z,17.97
2017-12-05T19:56:55.745Z,17.27
2017-12-05T19:59:22.404Z,17.90
2017-12-05T20:01:49.825Z,18.57
2017-12-05T20:04:17.810Z,16.13
2017-12-05T20:06:51.972Z,17.97
2017-12-05T20:09:20.392Z,17.23
2017-12-05T20:11:50.845Z,16.40
2017-12-05T20:14:18.303Z,15.80
2017-12-05T20:16:50.062Z,18.10
2017-12-05T20:19:21.900Z,16.20
2017-12-05T20:21:49.922Z,16.70
2017-12-05T20:24:21.090Z,17.97
2017-12-05T20:26:49.206Z,18.03
2017-12-05T20:29:17.060Z,18.10
2017-12-05T20:31:48.070Z,16.20
2017-12-05T20:34:20.998Z,18.80
2017-12-05T20:36:49.110Z,16.97
2017-12-05T20:39:16.973Z,17.30
2017-12-05T20:41:47.515Z,17.17
2017-12-05T20:44:17.511Z,18.30
2017-12-05T20:46:50.468Z,17.23
2017-12-05T20:49:20.460Z,17.27
2017-12-05T20:51:57.994Z,17.97
2017-12-05T21:00:28.801Z,16.50
2017-12-05T21:02:55.462Z,16.80
2017-12-05T21:08:28.041Z,18.20
2017-12-05T21:10:54.681Z,16.67
2017-12-05T21:13:22.273Z,17.97
2017-12-05T21:15:51.428Z,18.80
2017-12-05T21:18:20.716Z,17.30
2017-12-05T21:20:52.760Z,18.23
2017-12-05T21:23:21.570Z,18.47
2017-12-05T21:25:50.940Z,17.73
2017-12-05T21:28:21.310Z,19.50
2017-12-05T21:30:49.436Z,18.40
2017-12-05T21:33:19.923Z,17.47
2017-12-05T21:35:51.592Z,19.27
2017-12-05T21:38:20.917Z,19.87
2017-12-05T21:40:50.556Z,19.40
2017-12-05T21:43:24.084Z,20.23
2017-12-05T21:45:51.018Z,20.13
2017-12-05T21:48:17.681Z,19.87
2017-12-05T21:50:52.825Z,20.23
2017-12-05T21:53:23.725Z,19.50
2017-12-05T21:55:51.715Z,20.03
2017-12-05T21:58:25.802Z,19.20
2017-12-05T22:00:59.521Z,20.10
2017-12-05T22:03:26.397Z,18.63
2017-12-05T22:05:55.124Z,19.90
2017-12-05T22:08:25.730Z,19.90
2017-12-05T22:10:52.752Z,18.03
2017-12-05T22:13:21.231Z,19.87
2017-12-05T22:15:56.687Z,19.00
2017-12-05T22:18:23.864Z,18.70
2017-12-05T22:20:51.204Z,18.40
2017-12-05T22:23:20.728Z,19.37
2017-12-05T22:25:52.757Z,19.53
2017-12-05T22:28:21.469Z,18.20
2017-12-05T22:30:49.161Z,19.83
2017-12-05T22:33:19.850Z,20.00
2017-12-05T22:35:52.489Z,18.10
2017-12-05T22:38:22.604Z,18.23
2017-12-05T22:40:52.842Z,17.63
2017-12-05T22:43:24.473Z,16.13
2017-12-05T22:45:56.056Z,15.77
2017-12-05T22:48:24.092Z,18.20
2017-12-05T22:50:53.155Z,17.80
2017-12-05T22:53:22.606Z,18.57
2017-12-05T22:55:56.051Z,17.20
2017-12-05T22:58:25.269Z,16.97
2017-12-05T23:00:56.636Z,17.00
2017-12-05T23:03:26.613Z,17.57
2017-12-05T23:05:56.125Z,16.20
2017-12-05T23:08:26.620Z,16.80
2017-12-05T23:10:56.325Z,18.37
2017-12-05T23:13:26.250Z,17.03
2017-12-05T23:15:56.072Z,18.07
2017-12-05T23:18:24.825Z,17.80
2017-12-05T23:20:56.327Z,17.70
2017-12-05T23:23:26.088Z,18.33
2017-12-05T23:28:56.122Z,19.07
2017-12-05T23:31:27.605Z,20.80
2017-12-05T23:33:59.836Z,17.13
2017-12-05T23:36:26.740Z,19.20
2017-12-05T23:38:56.212Z,19.67
2017-12-05T23:41:26.637Z,18.57
2017-12-05T23:43:56.761Z,19.13
2017-12-05T23:46:26.314Z,21.40
2017-12-05T23:49:10.652Z,21.37
2017-12-05T23:51:40.237Z,20.80
2017-12-05T23:54:08.151Z,20.30
2017-12-05T23:56:36.134Z,20.50
2017-12-05T23:59:02.793Z,20.47
